sensor_id;sensor_type;location;lat;lon;timestamp;temperature;humidity
31837;DHT22;18401;49.344;6.240;2024-03-22T00:01:46;10.10;99.90
31837;DHT22;18401;49.344;6.240;2024-03-22T00:04:15;10.10;99.90
31837;DHT22;18401;49.344;6.240;2024-03-22T00:06:41;10.10;99.90
31837;DHT22;18401;49.344;6.240;2024-03-22T00:09:08;10.10;99.90
31837;DHT22;18401;49.344;6.240;2024-03-22T00:11:34;10.10;99.90
31837;DHT22;18401;49.344;6.240;2024-03-22T00:13:59;10.20;99.90
31837;DHT22;18401;49.344;6.240;2024-03-22T00:16:25;10.10;99.90
31837;DHT22;18401;49.344;6.240;2024-03-22T00:18:50;10.00;1.00
31837;DHT22;18401;49.344;6.240;2024-03-22T00:21:16;10.00;1.00
31837;DHT22;18401;49.344;6.240;2024-03-22T00:23:43;10.00;1.00
31837;DHT22;18401;49.344;6.240;2024-03-22T00:26:09;10.00;1.00
31837;DHT22;18401;49.344;6.240;2024-03-22T00:28:34;10.00;1.00
31837;DHT22;18401;49.344;6.240;2024-03-22T00:31:00;9.80;1.00
31837;DHT22;18401;49.344;6.240;2024-03-22T00:33:25;9.70;35.40
31837;DHT22;18401;49.344;6.240;2024-03-22T00:35:51;9.70;76.20
31837;DHT22;18401;49.344;6.240;2024-03-22T00:38:16;9.60;99.90
31837;DHT22;18401;49.344;6.240;2024-03-22T00:40:42;9.70;99.90
31837;DHT22;18401;49.344;6.240;2024-03-22T00:43:09;9.70;99.90
31837;DHT22;18401;49.344;6.240;2024-03-22T00:45:34;9.70;99.90
31837;DHT22;18401;49.344;6.240;2024-03-22T00:48:00;9.80;99.90
31837;DHT22;18401;49.344;6.240;2024-03-22T00:50:25;9.80;99.90
31837;DHT22;18401;49.344;6.240;2024-03-22T00:52:51;9.70;99.90
31837;DHT22;18401;49.344;6.240;2024-03-22T00:55:18;9.70;99.90
31837;DHT22;18401;49.344;6.240;2024-03-22T00:57:44;9.80;99.90
31837;DHT22;18401;49.344;6.240;2024-03-22T01:00:10;9.80;99.90
31837;DHT22;18401;49.344;6.240;2024-03-22T01:02:35;9.80;95.10
31837;DHT22;18401;49.344;6.240;2024-03-22T01:05:01;9.80;36.00
31837;DHT22;18401;49.344;6.240;2024-03-22T01:07:27;9.80;1.00
31837;DHT22;18401;49.344;6.240;2024-03-22T01:09:52;9.80;1.00
31837;DHT22;18401;49.344;6.240;2024-03-22T01:12:18;9.90;1.00
31837;DHT22;18401;49.344;6.240;2024-03-22T01:14:44;9.90;99.90
31837;DHT22;18401;49.344;6.240;2024-03-22T01:17:09;10.00;99.90
31837;DHT22;18401;49.344;6.240;2024-03-22T01:19:35;10.10;99.90
31837;DHT22;18401;49.344;6.240;2024-03-22T01:22:01;9.90;99.90
31837;DHT22;18401;49.344;6.240;2024-03-22T01:24:26;9.80;99.90
31837;DHT22;18401;49.344;6.240;2024-03-22T01:26:52;9.90;1.00
31837;DHT22;18401;49.344;6.240;2024-03-22T01:29:18;9.90;1.00
31837;DHT22;18401;49.344;6.240;2024-03-22T01:31:44;9.80;1.00
31837;DHT22;18401;49.344;6.240;2024-03-22T01:34:09;9.80;1.00
31837;DHT22;18401;49.344;6.240;2024-03-22T01:36:35;9.90;1.00
31837;DHT22;18401;49.344;6.240;2024-03-22T01:39:00;9.90;99.90
31837;DHT22;18401;49.344;6.240;2024-03-22T01:41:26;10.00;99.90
31837;DHT22;18401;49.344;6.240;2024-03-22T01:43:52;10.00;99.90
31837;DHT22;18401;49.344;6.240;2024-03-22T01:46:18;10.00;99.90
31837;DHT22;18401;49.344;6.240;2024-03-22T01:48:44;9.90;99.90
31837;DHT22;18401;49.344;6.240;2024-03-22T01:51:09;10.00;99.90
31837;DHT22;18401;49.344;6.240;2024-03-22T01:53:36;9.90;99.90
31837;DHT22;18401;49.344;6.240;2024-03-22T01:56:03;9.90;99.90
31837;DHT22;18401;49.344;6.240;2024-03-22T01:58:28;9.90;99.90
31837;DHT22;18401;49.344;6.240;2024-03-22T02:00:54;9.80;99.90
31837;DHT22;18401;49.344;6.240;2024-03-22T02:03:20;9.80;99.90
31837;DHT22;18401;49.344;6.240;2024-03-22T02:05:46;9.80;99.90
31837;DHT22;18401;49.344;6.240;2024-03-22T02:08:11;9.80;99.90
31837;DHT22;18401;49.344;6.240;2024-03-22T02:10:37;9.90;99.90
31837;DHT22;18401;49.344;6.240;2024-03-22T02:13:03;9.80;99.90
31837;DHT22;18401;49.344;6.240;2024-03-22T02:15:28;9.80;99.90
31837;DHT22;18401;49.344;6.240;2024-03-22T02:17:54;9.70;99.90
31837;DHT22;18401;49.344;6.240;2024-03-22T02:20:19;9.60;99.90
31837;DHT22;18401;49.344;6.240;2024-03-22T02:22:45;9.50;1.00
31837;DHT22;18401;49.344;6.240;2024-03-22T02:25:11;9.40;12.90
31837;DHT22;18401;49.344;6.240;2024-03-22T02:27:38;9.30;93.60
31837;DHT22;18401;49.344;6.240;2024-03-22T02:30:04;9.20;99.90
31837;DHT22;18401;49.344;6.240;2024-03-22T02:32:30;9.20;99.90
31837;DHT22;18401;49.344;6.240;2024-03-22T02:34:55;9.20;99.90
31837;DHT22;18401;49.344;6.240;2024-03-22T02:37:21;9.20;99.90
31837;DHT22;18401;49.344;6.240;2024-03-22T02:39:46;9.20;99.90
31837;DHT22;18401;49.344;6.240;2024-03-22T02:42:12;9.30;99.90
31837;DHT22;18401;49.344;6.240;2024-03-22T02:44:38;9.50;99.90
31837;DHT22;18401;49.344;6.240;2024-03-22T02:47:08;9.50;99.90
31837;DHT22;18401;49.344;6.240;2024-03-22T02:49:34;9.60;99.90
31837;DHT22;18401;49.344;6.240;2024-03-22T02:52:00;9.60;99.90
31837;DHT22;18401;49.344;6.240;2024-03-22T02:54:26;9.60;99.90
31837;DHT22;18401;49.344;6.240;2024-03-22T02:56:51;9.60;99.90
31837;DHT22;18401;49.344;6.240;2024-03-22T02:59:17;9.60;99.90
31837;DHT22;18401;49.344;6.240;2024-03-22T03:01:43;9.70;99.90
31837;DHT22;18401;49.344;6.240;2024-03-22T03:04:08;9.70;99.90
31837;DHT22;18401;49.344;6.240;2024-03-22T03:06:34;9.70;80.70
31837;DHT22;18401;49.344;6.240;2024-03-22T03:08:59;9.70;83.00
31837;DHT22;18401;49.344;6.240;2024-03-22T03:11:25;9.60;65.40
31837;DHT22;18401;49.344;6.240;2024-03-22T03:13:51;9.70;63.80
31837;DHT22;18401;49.344;6.240;2024-03-22T03:16:16;9.60;59.30
31837;DHT22;18401;49.344;6.240;2024-03-22T03:18:42;9.70;62.60
31837;DHT22;18401;49.344;6.240;2024-03-22T03:21:08;9.70;46.90
31837;DHT22;18401;49.344;6.240;2024-03-22T03:23:34;9.70;22.00
31837;DHT22;18401;49.344;6.240;2024-03-22T03:25:59;9.70;14.10
31837;DHT22;18401;49.344;6.240;2024-03-22T03:28:25;9.80;1.00
31837;DHT22;18401;49.344;6.240;2024-03-22T03:30:51;9.80;1.00
31837;DHT22;18401;49.344;6.240;2024-03-22T03:33:17;9.90;1.00
31837;DHT22;18401;49.344;6.240;2024-03-22T03:35:46;10.00;99.90
31837;DHT22;18401;49.344;6.240;2024-03-22T03:38:12;10.00;99.90
31837;DHT22;18401;49.344;6.240;2024-03-22T03:40:38;10.00;99.90
31837;DHT22;18401;49.344;6.240;2024-03-22T03:43:04;10.00;99.90
31837;DHT22;18401;49.344;6.240;2024-03-22T03:45:29;10.00;99.90
31837;DHT22;18401;49.344;6.240;2024-03-22T03:47:55;10.00;99.90
31837;DHT22;18401;49.344;6.240;2024-03-22T03:50:22;10.00;99.90
31837;DHT22;18401;49.344;6.240;2024-03-22T03:52:47;9.90;99.90
31837;DHT22;18401;49.344;6.240;2024-03-22T03:55:13;10.00;99.90
31837;DHT22;18401;49.344;6.240;2024-03-22T03:57:39;10.00;99.90
31837;DHT22;18401;49.344;6.240;2024-03-22T04:00:05;10.00;99.90
31837;DHT22;18401;49.344;6.240;2024-03-22T04:02:31;10.10;99.90
31837;DHT22;18401;49.344;6.240;2024-03-22T04:04:57;10.20;99.90
31837;DHT22;18401;49.344;6.240;2024-03-22T04:07:22;10.00;99.90
31837;DHT22;18401;49.344;6.240;2024-03-22T04:09:48;10.00;99.90
31837;DHT22;18401;49.344;6.240;2024-03-22T04:12:14;9.90;99.90
31837;DHT22;18401;49.344;6.240;2024-03-22T04:14:39;9.90;99.90
31837;DHT22;18401;49.344;6.240;2024-03-22T04:17:05;9.80;99.90
31837;DHT22;18401;49.344;6.240;2024-03-22T04:19:31;9.70;99.90
31837;DHT22;18401;49.344;6.240;2024-03-22T04:21:56;9.60;1.00
31837;DHT22;18401;49.344;6.240;2024-03-22T04:24:22;9.50;1.00
31837;DHT22;18401;49.344;6.240;2024-03-22T04:26:48;9.40;1.00
31837;DHT22;18401;49.344;6.240;2024-03-22T04:29:13;9.40;20.20
31837;DHT22;18401;49.344;6.240;2024-03-22T04:31:39;9.30;33.40
31837;DHT22;18401;49.344;6.240;2024-03-22T04:34:05;9.30;84.90
31837;DHT22;18401;49.344;6.240;2024-03-22T04:36:33;9.30;99.20
31837;DHT22;18401;49.344;6.240;2024-03-22T04:38:59;9.20;99.90
31837;DHT22;18401;49.344;6.240;2024-03-22T04:41:25;9.10;99.90
31837;DHT22;18401;49.344;6.240;2024-03-22T04:43:50;9.10;99.90
31837;DHT22;18401;49.344;6.240;2024-03-22T04:46:16;9.00;99.90
31837;DHT22;18401;49.344;6.240;2024-03-22T04:48:41;8.90;99.90
31837;DHT22;18401;49.344;6.240;2024-03-22T04:51:07;9.00;99.90
31837;DHT22;18401;49.344;6.240;2024-03-22T04:53:33;9.10;99.90
31837;DHT22;18401;49.344;6.240;2024-03-22T04:55:58;9.10;99.90
31837;DHT22;18401;49.344;6.240;2024-03-22T04:58:24;9.10;99.90
31837;DHT22;18401;49.344;6.240;2024-03-22T05:00:55;9.10;99.90
31837;DHT22;18401;49.344;6.240;2024-03-22T05:03:21;9.10;99.90
31837;DHT22;18401;49.344;6.240;2024-03-22T05:05:46;9.20;99.90
31837;DHT22;18401;49.344;6.240;2024-03-22T05:08:12;9.20;99.90
31837;DHT22;18401;49.344;6.240;2024-03-22T05:10:38;9.30;99.90
31837;DHT22;18401;49.344;6.240;2024-03-22T05:13:03;9.20;99.90
31837;DHT22;18401;49.344;6.240;2024-03-22T05:15:29;9.30;99.90
31837;DHT22;18401;49.344;6.240;2024-03-22T05:17:56;9.30;99.90
31837;DHT22;18401;49.344;6.240;2024-03-22T05:20:21;9.40;99.90
31837;DHT22;18401;49.344;6.240;2024-03-22T05:22:48;9.50;99.90
31837;DHT22;18401;49.344;6.240;2024-03-22T05:25:14;9.50;99.90
31837;DHT22;18401;49.344;6.240;2024-03-22T05:27:41;9.50;99.90
31837;DHT22;18401;49.344;6.240;2024-03-22T05:30:08;9.60;99.90
31837;DHT22;18401;49.344;6.240;2024-03-22T05:32:34;9.70;99.90
31837;DHT22;18401;49.344;6.240;2024-03-22T05:34:59;9.60;99.90
31837;DHT22;18401;49.344;6.240;2024-03-22T05:37:25;9.70;99.90
31837;DHT22;18401;49.344;6.240;2024-03-22T05:39:50;9.60;99.90
31837;DHT22;18401;49.344;6.240;2024-03-22T05:42:16;9.50;99.90
31837;DHT22;18401;49.344;6.240;2024-03-22T05:44:47;9.70;99.90
31837;DHT22;18401;49.344;6.240;2024-03-22T05:47:13;9.70;99.90
31837;DHT22;18401;49.344;6.240;2024-03-22T05:49:38;9.80;99.90
31837;DHT22;18401;49.344;6.240;2024-03-22T05:52:04;9.80;99.90
31837;DHT22;18401;49.344;6.240;2024-03-22T05:54:30;9.80;94.90
31837;DHT22;18401;49.344;6.240;2024-03-22T05:56:56;9.80;78.00
31837;DHT22;18401;49.344;6.240;2024-03-22T05:59:21;9.90;39.50
31837;DHT22;18401;49.344;6.240;2024-03-22T06:01:47;9.90;18.10
31837;DHT22;18401;49.344;6.240;2024-03-22T06:04:12;9.90;4.30
31837;DHT22;18401;49.344;6.240;2024-03-22T06:06:38;9.90;1.00
31837;DHT22;18401;49.344;6.240;2024-03-22T06:09:04;9.90;14.00
31837;DHT22;18401;49.344;6.240;2024-03-22T06:11:34;9.90;26.20
31837;DHT22;18401;49.344;6.240;2024-03-22T06:13:59;9.90;34.80
31837;DHT22;18401;49.344;6.240;2024-03-22T06:16:25;10.00;22.30
31837;DHT22;18401;49.344;6.240;2024-03-22T06:18:50;10.10;19.00
31837;DHT22;18401;49.344;6.240;2024-03-22T06:21:16;10.10;10.90
31837;DHT22;18401;49.344;6.240;2024-03-22T06:23:49;10.10;20.70
31837;DHT22;18401;49.344;6.240;2024-03-22T06:26:15;10.20;1.00
31837;DHT22;18401;49.344;6.240;2024-03-22T06:28:41;10.30;1.00
31837;DHT22;18401;49.344;6.240;2024-03-22T06:31:07;10.40;1.00
31837;DHT22;18401;49.344;6.240;2024-03-22T06:33:33;10.40;1.00
31837;DHT22;18401;49.344;6.240;2024-03-22T06:35:58;10.50;99.90
31837;DHT22;18401;49.344;6.240;2024-03-22T06:38:25;10.50;99.90
31837;DHT22;18401;49.344;6.240;2024-03-22T06:40:51;10.60;99.90
31837;DHT22;18401;49.344;6.240;2024-03-22T06:43:16;10.70;99.90
31837;DHT22;18401;49.344;6.240;2024-03-22T06:45:42;10.70;99.90
31837;DHT22;18401;49.344;6.240;2024-03-22T06:48:07;10.70;99.90
31837;DHT22;18401;49.344;6.240;2024-03-22T06:50:33;10.70;99.90
31837;DHT22;18401;49.344;6.240;2024-03-22T06:52:59;10.80;99.90
31837;DHT22;18401;49.344;6.240;2024-03-22T06:55:24;10.90;99.90
31837;DHT22;18401;49.344;6.240;2024-03-22T06:57:50;10.90;99.90
31837;DHT22;18401;49.344;6.240;2024-03-22T07:00:18;10.90;99.90
31837;DHT22;18401;49.344;6.240;2024-03-22T07:02:44;11.00;99.90
31837;DHT22;18401;49.344;6.240;2024-03-22T07:05:10;11.10;99.90
31837;DHT22;18401;49.344;6.240;2024-03-22T07:07:36;11.30;99.90
31837;DHT22;18401;49.344;6.240;2024-03-22T07:10:03;11.30;99.90
31837;DHT22;18401;49.344;6.240;2024-03-22T07:12:29;11.40;8.30
31837;DHT22;18401;49.344;6.240;2024-03-22T07:14:59;11.40;1.00
31837;DHT22;18401;49.344;6.240;2024-03-22T07:17:25;11.60;3.90
31837;DHT22;18401;49.344;6.240;2024-03-22T07:19:51;11.70;23.80
31837;DHT22;18401;49.344;6.240;2024-03-22T07:22:17;11.70;28.50
31837;DHT22;18401;49.344;6.240;2024-03-22T07:24:43;11.60;45.60
31837;DHT22;18401;49.344;6.240;2024-03-22T07:27:09;11.70;1.00
31837;DHT22;18401;49.344;6.240;2024-03-22T07:29:35;11.60;19.80
31837;DHT22;18401;49.344;6.240;2024-03-22T07:32:00;11.70;43.90
31837;DHT22;18401;49.344;6.240;2024-03-22T07:34:26;11.60;99.90
31837;DHT22;18401;49.344;6.240;2024-03-22T07:36:52;11.60;1.00
31837;DHT22;18401;49.344;6.240;2024-03-22T07:39:17;11.60;1.00
31837;DHT22;18401;49.344;6.240;2024-03-22T07:41:43;11.70;1.00
31837;DHT22;18401;49.344;6.240;2024-03-22T07:44:09;11.70;46.60
31837;DHT22;18401;49.344;6.240;2024-03-22T07:46:35;11.60;1.00
31837;DHT22;18401;49.344;6.240;2024-03-22T07:49:00;11.70;1.00
31837;DHT22;18401;49.344;6.240;2024-03-22T07:51:26;11.80;1.00
31837;DHT22;18401;49.344;6.240;2024-03-22T07:53:51;12.00;1.00
31837;DHT22;18401;49.344;6.240;2024-03-22T07:56:17;12.20;99.90
31837;DHT22;18401;49.344;6.240;2024-03-22T07:58:44;12.50;99.90
31837;DHT22;18401;49.344;6.240;2024-03-22T08:01:10;12.60;99.90
31837;DHT22;18401;49.344;6.240;2024-03-22T08:03:36;12.70;99.90
31837;DHT22;18401;49.344;6.240;2024-03-22T08:06:01;12.70;99.90
31837;DHT22;18401;49.344;6.240;2024-03-22T08:08:27;12.50;99.90
31837;DHT22;18401;49.344;6.240;2024-03-22T08:10:52;12.50;99.90
31837;DHT22;18401;49.344;6.240;2024-03-22T08:13:18;12.60;99.90
31837;DHT22;18401;49.344;6.240;2024-03-22T08:15:44;12.60;99.90
31837;DHT22;18401;49.344;6.240;2024-03-22T08:18:11;12.80;99.90
31837;DHT22;18401;49.344;6.240;2024-03-22T08:20:36;12.90;99.90
31837;DHT22;18401;49.344;6.240;2024-03-22T08:23:07;12.90;99.90
31837;DHT22;18401;49.344;6.240;2024-03-22T08:25:32;12.90;99.90
31837;DHT22;18401;49.344;6.240;2024-03-22T08:27:59;13.00;99.90
31837;DHT22;18401;49.344;6.240;2024-03-22T08:30:25;13.10;99.90
31837;DHT22;18401;49.344;6.240;2024-03-22T08:32:52;13.20;99.90
31837;DHT22;18401;49.344;6.240;2024-03-22T08:35:17;13.20;99.90
31837;DHT22;18401;49.344;6.240;2024-03-22T08:37:43;13.20;90.40
31837;DHT22;18401;49.344;6.240;2024-03-22T08:40:09;13.20;99.90
31837;DHT22;18401;49.344;6.240;2024-03-22T08:42:36;13.20;99.90
31837;DHT22;18401;49.344;6.240;2024-03-22T08:45:01;13.50;99.90
31837;DHT22;18401;49.344;6.240;2024-03-22T08:47:29;13.50;99.90
31837;DHT22;18401;49.344;6.240;2024-03-22T08:49:55;13.80;61.20
31837;DHT22;18401;49.344;6.240;2024-03-22T08:52:23;13.70;99.90
31837;DHT22;18401;49.344;6.240;2024-03-22T08:54:50;13.80;96.40
31837;DHT22;18401;49.344;6.240;2024-03-22T08:57:16;13.90;44.50
31837;DHT22;18401;49.344;6.240;2024-03-22T08:59:41;14.00;1.00
31837;DHT22;18401;49.344;6.240;2024-03-22T09:02:07;13.80;1.00
31837;DHT22;18401;49.344;6.240;2024-03-22T09:04:33;13.90;99.90
31837;DHT22;18401;49.344;6.240;2024-03-22T09:06:58;13.90;99.90
31837;DHT22;18401;49.344;6.240;2024-03-22T09:09:24;14.20;99.90
31837;DHT22;18401;49.344;6.240;2024-03-22T09:11:49;14.30;99.90
31837;DHT22;18401;49.344;6.240;2024-03-22T09:14:15;14.70;99.90
31837;DHT22;18401;49.344;6.240;2024-03-22T09:16:42;15.40;99.90
31837;DHT22;18401;49.344;6.240;2024-03-22T09:19:08;15.20;99.90
31837;DHT22;18401;49.344;6.240;2024-03-22T09:21:34;15.20;99.90
31837;DHT22;18401;49.344;6.240;2024-03-22T09:23:59;15.20;99.90
31837;DHT22;18401;49.344;6.240;2024-03-22T09:26:25;15.20;99.90
31837;DHT22;18401;49.344;6.240;2024-03-22T09:28:51;15.40;99.90
31837;DHT22;18401;49.344;6.240;2024-03-22T09:31:17;15.40;99.90
31837;DHT22;18401;49.344;6.240;2024-03-22T09:33:43;15.40;99.90
31837;DHT22;18401;49.344;6.240;2024-03-22T09:36:08;15.30;99.00
31837;DHT22;18401;49.344;6.240;2024-03-22T09:38:34;15.10;99.90
31837;DHT22;18401;49.344;6.240;2024-03-22T09:41:00;15.30;99.90
31837;DHT22;18401;49.344;6.240;2024-03-22T09:43:27;15.20;99.90
31837;DHT22;18401;49.344;6.240;2024-03-22T09:45:55;15.30;99.90
31837;DHT22;18401;49.344;6.240;2024-03-22T09:48:20;15.50;99.90
31837;DHT22;18401;49.344;6.240;2024-03-22T09:50:47;15.90;99.90
31837;DHT22;18401;49.344;6.240;2024-03-22T09:53:19;15.80;13.00
31837;DHT22;18401;49.344;6.240;2024-03-22T09:55:45;16.00;57.30
31837;DHT22;18401;49.344;6.240;2024-03-22T09:58:12;16.10;16.40
31837;DHT22;18401;49.344;6.240;2024-03-22T10:00:38;16.20;18.30
31837;DHT22;18401;49.344;6.240;2024-03-22T10:03:04;16.40;99.90
31837;DHT22;18401;49.344;6.240;2024-03-22T10:05:31;16.30;1.00
31837;DHT22;18401;49.344;6.240;2024-03-22T10:07:57;16.70;22.10
31837;DHT22;18401;49.344;6.240;2024-03-22T10:10:23;16.40;67.40
31837;DHT22;18401;49.344;6.240;2024-03-22T10:12:48;16.40;15.60
31837;DHT22;18401;49.344;6.240;2024-03-22T10:15:14;16.40;24.70
31837;DHT22;18401;49.344;6.240;2024-03-22T10:17:41;16.40;1.00
31837;DHT22;18401;49.344;6.240;2024-03-22T10:20:06;16.30;1.00
31837;DHT22;18401;49.344;6.240;2024-03-22T10:22:55;16.20;1.00
31837;DHT22;18401;49.344;6.240;2024-03-22T10:25:21;16.30;68.60
31837;DHT22;18401;49.344;6.240;2024-03-22T10:27:47;16.20;4.50
31837;DHT22;18401;49.344;6.240;2024-03-22T10:30:15;16.40;66.00
31837;DHT22;18401;49.344;6.240;2024-03-22T10:32:44;16.20;99.90
31837;DHT22;18401;49.344;6.240;2024-03-22T10:35:12;16.50;79.40
31837;DHT22;18401;49.344;6.240;2024-03-22T10:37:39;16.30;1.00
31837;DHT22;18401;49.344;6.240;2024-03-22T10:40:05;16.50;45.00
31837;DHT22;18401;49.344;6.240;2024-03-22T10:42:35;16.40;1.00
31837;DHT22;18401;49.344;6.240;2024-03-22T10:45:05;16.70;99.90
31837;DHT22;18401;49.344;6.240;2024-03-22T10:47:33;16.70;1.00
31837;DHT22;18401;49.344;6.240;2024-03-22T10:50:09;16.60;99.90
31837;DHT22;18401;49.344;6.240;2024-03-22T10:52:47;16.50;1.00
31837;DHT22;18401;49.344;6.240;2024-03-22T10:55:43;16.80;99.90
31837;DHT22;18401;49.344;6.240;2024-03-22T10:58:21;17.00;42.40
31837;DHT22;18401;49.344;6.240;2024-03-22T11:00:50;17.00;99.90
31837;DHT22;18401;49.344;6.240;2024-03-22T11:03:19;17.10;1.00
31837;DHT22;18401;49.344;6.240;2024-03-22T11:05:48;17.00;1.00
31837;DHT22;18401;49.344;6.240;2024-03-22T11:08:27;17.10;99.90
31837;DHT22;18401;49.344;6.240;2024-03-22T11:10:54;17.40;15.10
31837;DHT22;18401;49.344;6.240;2024-03-22T11:13:20;17.30;1.00
31837;DHT22;18401;49.344;6.240;2024-03-22T11:15:49;16.60;99.90
31837;DHT22;18401;49.344;6.240;2024-03-22T11:18:15;16.70;99.90
31837;DHT22;18401;49.344;6.240;2024-03-22T11:20:44;16.70;99.90
31837;DHT22;18401;49.344;6.240;2024-03-22T11:23:13;16.40;1.00
31837;DHT22;18401;49.344;6.240;2024-03-22T11:25:38;16.50;1.00
31837;DHT22;18401;49.344;6.240;2024-03-22T11:28:04;16.30;1.00
31837;DHT22;18401;49.344;6.240;2024-03-22T11:30:32;16.30;68.60
31837;DHT22;18401;49.344;6.240;2024-03-22T11:33:00;16.40;1.00
31837;DHT22;18401;49.344;6.240;2024-03-22T11:35:26;16.40;1.00
31837;DHT22;18401;49.344;6.240;2024-03-22T11:37:51;16.10;31.60
31837;DHT22;18401;49.344;6.240;2024-03-22T11:40:17;16.10;99.90
31837;DHT22;18401;49.344;6.240;2024-03-22T11:42:49;16.10;99.90
31837;DHT22;18401;49.344;6.240;2024-03-22T11:45:17;16.00;99.90
31837;DHT22;18401;49.344;6.240;2024-03-22T11:47:44;16.00;99.90
31837;DHT22;18401;49.344;6.240;2024-03-22T11:50:12;15.70;99.90
31837;DHT22;18401;49.344;6.240;2024-03-22T11:52:41;15.70;99.90
31837;DHT22;18401;49.344;6.240;2024-03-22T11:55:07;15.70;99.90
31837;DHT22;18401;49.344;6.240;2024-03-22T11:57:32;15.70;99.90
31837;DHT22;18401;49.344;6.240;2024-03-22T12:00:02;15.60;99.90
31837;DHT22;18401;49.344;6.240;2024-03-22T12:02:31;15.60;99.90
31837;DHT22;18401;49.344;6.240;2024-03-22T12:04:57;15.60;1.00
31837;DHT22;18401;49.344;6.240;2024-03-22T12:07:24;15.80;99.90
31837;DHT22;18401;49.344;6.240;2024-03-22T12:09:49;15.90;99.90
31837;DHT22;18401;49.344;6.240;2024-03-22T12:12:15;16.00;1.00
31837;DHT22;18401;49.344;6.240;2024-03-22T12:14:41;16.20;99.90
31837;DHT22;18401;49.344;6.240;2024-03-22T12:17:07;16.20;99.90
31837;DHT22;18401;49.344;6.240;2024-03-22T12:19:34;16.30;99.90
31837;DHT22;18401;49.344;6.240;2024-03-22T12:22:00;16.40;99.90
31837;DHT22;18401;49.344;6.240;2024-03-22T12:24:26;16.40;99.90
31837;DHT22;18401;49.344;6.240;2024-03-22T12:26:55;16.40;99.90
31837;DHT22;18401;49.344;6.240;2024-03-22T12:29:21;16.30;94.30
31837;DHT22;18401;49.344;6.240;2024-03-22T12:31:47;16.30;73.40
31837;DHT22;18401;49.344;6.240;2024-03-22T12:34:13;16.40;91.30
31837;DHT22;18401;49.344;6.240;2024-03-22T12:36:38;16.50;92.00
31837;DHT22;18401;49.344;6.240;2024-03-22T12:39:04;16.60;31.40
31837;DHT22;18401;49.344;6.240;2024-03-22T12:41:30;16.70;1.00
31837;DHT22;18401;49.344;6.240;2024-03-22T12:43:56;16.70;1.00
31837;DHT22;18401;49.344;6.240;2024-03-22T12:46:22;16.80;1.00
31837;DHT22;18401;49.344;6.240;2024-03-22T12:48:47;17.20;16.50
31837;DHT22;18401;49.344;6.240;2024-03-22T12:51:13;18.70;93.90
31837;DHT22;18401;49.344;6.240;2024-03-22T12:53:39;18.70;1.00
31837;DHT22;18401;49.344;6.240;2024-03-22T12:56:05;18.90;99.90
31837;DHT22;18401;49.344;6.240;2024-03-22T12:58:31;18.90;99.90
31837;DHT22;18401;49.344;6.240;2024-03-22T13:00:57;18.80;99.90
31837;DHT22;18401;49.344;6.240;2024-03-22T13:03:23;19.70;99.90
31837;DHT22;18401;49.344;6.240;2024-03-22T13:05:49;20.30;99.90
31837;DHT22;18401;49.344;6.240;2024-03-22T13:08:14;19.20;99.90
31837;DHT22;18401;49.344;6.240;2024-03-22T13:10:40;19.40;99.90
31837;DHT22;18401;49.344;6.240;2024-03-22T13:13:09;20.00;99.90
31837;DHT22;18401;49.344;6.240;2024-03-22T13:15:34;20.20;99.90
31837;DHT22;18401;49.344;6.240;2024-03-22T13:18:02;20.90;99.90
31837;DHT22;18401;49.344;6.240;2024-03-22T13:20:28;20.70;99.90
31837;DHT22;18401;49.344;6.240;2024-03-22T13:22:53;20.20;94.30
31837;DHT22;18401;49.344;6.240;2024-03-22T13:25:19;19.90;99.40
31837;DHT22;18401;49.344;6.240;2024-03-22T13:27:45;19.70;99.90
31837;DHT22;18401;49.344;6.240;2024-03-22T13:30:11;20.80;38.00
31837;DHT22;18401;49.344;6.240;2024-03-22T13:32:37;21.10;31.10
31837;DHT22;18401;49.344;6.240;2024-03-22T13:35:04;21.20;33.20
31837;DHT22;18401;49.344;6.240;2024-03-22T13:37:30;20.70;99.90
31837;DHT22;18401;49.344;6.240;2024-03-22T13:39:56;19.70;92.50
31837;DHT22;18401;49.344;6.240;2024-03-22T13:42:21;19.50;99.90
31837;DHT22;18401;49.344;6.240;2024-03-22T13:44:47;20.10;99.90
31837;DHT22;18401;49.344;6.240;2024-03-22T13:47:13;20.30;29.40
31837;DHT22;18401;49.344;6.240;2024-03-22T13:49:38;20.30;50.20
31837;DHT22;18401;49.344;6.240;2024-03-22T13:52:07;20.60;92.50
31837;DHT22;18401;49.344;6.240;2024-03-22T13:54:33;20.70;43.40
31837;DHT22;18401;49.344;6.240;2024-03-22T13:56:58;19.00;99.90
31837;DHT22;18401;49.344;6.240;2024-03-22T13:59:26;19.50;99.90
31837;DHT22;18401;49.344;6.240;2024-03-22T14:01:51;20.30;93.50
31837;DHT22;18401;49.344;6.240;2024-03-22T14:04:18;20.30;99.90
31837;DHT22;18401;49.344;6.240;2024-03-22T14:06:45;19.70;99.90
31837;DHT22;18401;49.344;6.240;2024-03-22T14:09:10;20.90;25.60
31837;DHT22;18401;49.344;6.240;2024-03-22T14:11:39;20.40;1.00
31837;DHT22;18401;49.344;6.240;2024-03-22T14:14:05;20.00;6.40
31837;DHT22;18401;49.344;6.240;2024-03-22T14:16:30;20.40;1.00
31837;DHT22;18401;49.344;6.240;2024-03-22T14:18:56;21.30;1.00
31837;DHT22;18401;49.344;6.240;2024-03-22T14:21:22;21.80;1.00
31837;DHT22;18401;49.344;6.240;2024-03-22T14:23:51;22.20;1.00
31837;DHT22;18401;49.344;6.240;2024-03-22T14:26:17;22.90;99.90
31837;DHT22;18401;49.344;6.240;2024-03-22T14:28:43;22.90;99.90
31837;DHT22;18401;49.344;6.240;2024-03-22T14:31:10;22.00;1.00
31837;DHT22;18401;49.344;6.240;2024-03-22T14:33:36;20.00;1.00
31837;DHT22;18401;49.344;6.240;2024-03-22T14:36:06;20.10;71.40
31837;DHT22;18401;49.344;6.240;2024-03-22T14:38:33;21.30;1.00
31837;DHT22;18401;49.344;6.240;2024-03-22T14:40:59;22.10;1.00
31837;DHT22;18401;49.344;6.240;2024-03-22T14:43:25;21.50;1.00
31837;DHT22;18401;49.344;6.240;2024-03-22T14:45:54;20.90;1.00
31837;DHT22;18401;49.344;6.240;2024-03-22T14:48:21;19.80;3.70
31837;DHT22;18401;49.344;6.240;2024-03-22T14:50:47;18.40;99.90
31837;DHT22;18401;49.344;6.240;2024-03-22T14:53:13;18.80;99.90
31837;DHT22;18401;49.344;6.240;2024-03-22T14:55:39;20.20;1.00
31837;DHT22;18401;49.344;6.240;2024-03-22T14:58:06;20.40;2.50
31837;DHT22;18401;49.344;6.240;2024-03-22T15:00:32;20.30;1.00
31837;DHT22;18401;49.344;6.240;2024-03-22T15:02:59;20.50;1.00
31837;DHT22;18401;49.344;6.240;2024-03-22T15:05:25;19.80;1.00
31837;DHT22;18401;49.344;6.240;2024-03-22T15:07:50;19.70;21.70
31837;DHT22;18401;49.344;6.240;2024-03-22T15:10:16;19.80;8.10
31837;DHT22;18401;49.344;6.240;2024-03-22T15:12:41;20.40;1.00
31837;DHT22;18401;49.344;6.240;2024-03-22T15:15:07;19.90;1.00
31837;DHT22;18401;49.344;6.240;2024-03-22T15:17:33;18.90;1.00
31837;DHT22;18401;49.344;6.240;2024-03-22T15:19:59;18.50;28.50
31837;DHT22;18401;49.344;6.240;2024-03-22T15:22:25;18.70;69.50
31837;DHT22;18401;49.344;6.240;2024-03-22T15:24:51;19.90;1.00
31837;DHT22;18401;49.344;6.240;2024-03-22T15:27:18;20.70;14.90
31837;DHT22;18401;49.344;6.240;2024-03-22T15:29:44;20.50;1.00
31837;DHT22;18401;49.344;6.240;2024-03-22T15:32:10;19.30;1.00
31837;DHT22;18401;49.344;6.240;2024-03-22T15:34:36;19.90;1.00